createdAt,value
2017-10-17T00:01:03.676Z,58.90
2017-10-17T00:03:31.190Z,59.70
2017-10-17T00:05:58.768Z,59.37
2017-10-17T00:08:26.377Z,58.90
2017-10-17T00:10:53.904Z,58.92
2017-10-17T00:13:21.704Z,59.14
2017-10-17T00:15:49.219Z,59.45
2017-10-17T00:18:16.815Z,59.85
2017-10-17T00:20:44.475Z,60.38
2017-10-17T00:23:12.138Z,60.38
2017-10-17T00:25:39.804Z,59.81
2017-10-17T00:28:07.666Z,60.24
2017-10-17T00:30:45.111Z,60.55
2017-10-17T00:33:15.502Z,60.50
2017-10-17T00:35:44.809Z,61.05
2017-10-17T00:38:14.123Z,61.26
2017-10-17T00:40:42.056Z,61.46
2017-10-17T00:43:16.511Z,60.98
2017-10-17T00:45:44.347Z,60.81
2017-10-17T00:48:17.795Z,61.02
2017-10-17T00:50:47.232Z,60.97
2017-10-17T00:53:15.588Z,61.13
2017-10-17T00:55:43.120Z,60.94
2017-10-17T00:58:11.006Z,61.14
2017-10-17T01:00:38.541Z,61.44
2017-10-17T01:03:06.068Z,61.70
2017-10-17T01:05:33.774Z,60.99
2017-10-17T01:08:01.299Z,60.93
2017-10-17T01:10:28.820Z,61.18
2017-10-17T01:12:56.706Z,60.26
2017-10-17T01:15:24.239Z,60.19
2017-10-17T01:17:51.926Z,59.49
2017-10-17T01:20:35.460Z,58.94
2017-10-17T01:23:04.542Z,59.33
2017-10-17T01:25:32.114Z,59.42
2017-10-17T01:28:03.789Z,60.26
2017-10-17T01:30:31.431Z,60.41
2017-10-17T01:32:58.963Z,60.13
2017-10-17T01:35:26.960Z,59.95
2017-10-17T01:37:54.486Z,60.62
2017-10-17T01:40:25.451Z,60.71
2017-10-17T01:42:53.044Z,60.32
2017-10-17T01:45:20.598Z,60.13
2017-10-17T01:47:48.114Z,60.03
2017-10-17T01:50:18.760Z,59.87
2017-10-17T01:52:47.115Z,60.09
2017-10-17T01:55:14.642Z,60.22
2017-10-17T01:57:46.067Z,60.30
2017-10-17T02:00:14.386Z,60.63
2017-10-17T02:02:41.911Z,60.69
2017-10-17T02:05:09.500Z,60.72
2017-10-17T02:07:37.887Z,60.89
2017-10-17T02:10:09.018Z,60.60
2017-10-17T02:12:36.647Z,59.86
2017-10-17T02:15:04.223Z,59.63
2017-10-17T02:17:33.432Z,59.37
2017-10-17T02:20:01.147Z,59.10
2017-10-17T02:22:39.768Z,58.99
2017-10-17T02:28:25.676Z,59.18
2017-10-17T02:30:54.811Z,59.60
2017-10-17T02:33:24.067Z,59.81
2017-10-17T02:35:51.727Z,59.63
2017-10-17T02:38:19.259Z,59.63
2017-10-17T02:40:48.364Z,59.83
2017-10-17T02:43:22.353Z,60.70
2017-10-17T02:45:49.962Z,60.82
2017-10-17T02:48:28.674Z,61.06
2017-10-17T02:50:56.336Z,61.45
2017-10-17T02:53:24.000Z,61.57
2017-10-17T02:55:52.640Z,61.57
2017-10-17T02:58:20.172Z,61.86
2017-10-17T03:00:47.766Z,62.21
2017-10-17T03:03:32.259Z,61.86
2017-10-17T03:05:59.793Z,62.09
2017-10-17T03:08:27.478Z,62.31
2017-10-17T03:10:55.346Z,62.55
2017-10-17T03:13:27.331Z,63.00
2017-10-17T03:15:56.915Z,64.40
2017-10-17T03:18:24.443Z,65.37
2017-10-17T03:20:53.832Z,65.57
2017-10-17T03:23:24.747Z,65.13
2017-10-17T03:25:52.272Z,65.27
2017-10-17T03:28:19.799Z,64.70
2017-10-17T03:30:51.176Z,64.93
2017-10-17T03:33:29.593Z,65.41
2017-10-17T03:35:57.459Z,64.38
2017-10-17T03:41:41.852Z,64.87
2017-10-17T03:44:14.949Z,64.94
2017-10-17T03:46:43.247Z,64.25
2017-10-17T03:49:28.571Z,64.95
2017-10-17T03:51:56.263Z,65.49
2017-10-17T03:54:26.700Z,64.39
2017-10-17T03:56:54.227Z,63.67
2017-10-17T03:59:25.975Z,64.00
2017-10-17T04:01:53.503Z,64.37
2017-10-17T04:04:27.568Z,64.20
2017-10-17T04:10:25.648Z,65.99
2017-10-17T04:12:53.964Z,65.55
2017-10-17T04:15:21.579Z,65.24
2017-10-17T04:17:54.259Z,64.88
2017-10-17T04:20:31.375Z,65.35
2017-10-17T04:23:10.907Z,64.76
2017-10-17T04:25:51.215Z,65.21
2017-10-17T04:28:49.521Z,64.54
2017-10-17T04:34:35.227Z,65.85
2017-10-17T04:37:20.459Z,66.14
2017-10-17T04:39:48.567Z,65.69
2017-10-17T04:42:28.883Z,65.99
2017-10-17T04:48:44.507Z,66.29
2017-10-17T04:51:23.132Z,66.59
2017-10-17T04:53:59.279Z,66.68
2017-10-17T04:56:27.076Z,66.78
2017-10-17T05:02:15.919Z,66.59
2017-10-17T05:05:09.748Z,66.80
2017-10-17T05:10:52.525Z,66.39
2017-10-17T05:16:49.039Z,65.13
2017-10-17T05:22:22.660Z,65.96
2017-10-17T05:24:52.266Z,65.24
2017-10-17T05:30:26.892Z,65.88
2017-10-17T05:33:03.503Z,66.86
2017-10-17T05:35:31.287Z,66.48
2017-10-17T05:37:58.898Z,66.43
2017-10-17T05:40:26.692Z,65.63
2017-10-17T05:42:54.415Z,65.72
2017-10-17T05:45:21.935Z,66.46
2017-10-17T05:47:52.979Z,66.43
2017-10-17T05:55:30.128Z,65.98
2017-10-17T05:57:57.812Z,65.48
2017-10-17T06:00:25.372Z,66.20
2017-10-17T06:02:52.904Z,66.34
2017-10-17T06:05:20.627Z,66.35
2017-10-17T06:07:48.154Z,66.96
2017-10-17T06:10:15.711Z,66.61
2017-10-17T06:12:43.419Z,66.89
2017-10-17T06:15:10.956Z,66.80
2017-10-17T06:17:38.491Z,66.03
2017-10-17T06:20:06.064Z,66.29
2017-10-17T06:22:33.596Z,65.98
2017-10-17T06:25:01.135Z,65.12
2017-10-17T06:27:28.810Z,64.68
2017-10-17T06:29:56.389Z,64.81
2017-10-17T06:32:23.920Z,65.23
2017-10-17T06:34:51.504Z,65.07
2017-10-17T06:37:19.035Z,65.22
2017-10-17T06:39:46.571Z,65.08
2017-10-17T06:42:14.302Z,64.67
2017-10-17T06:44:41.846Z,64.95
2017-10-17T06:47:09.374Z,65.21
2017-10-17T06:49:36.973Z,64.31
2017-10-17T06:52:04.503Z,64.57
2017-10-17T06:54:32.039Z,64.08
2017-10-17T06:56:59.728Z,64.51
2017-10-17T06:59:27.271Z,64.42
2017-10-17T07:01:54.811Z,64.38
2017-10-17T07:04:22.822Z,64.58
2017-10-17T07:06:50.395Z,64.76
2017-10-17T07:09:17.960Z,64.53
2017-10-17T07:11:45.560Z,64.50
2017-10-17T07:14:13.100Z,64.19
2017-10-17T07:16:40.626Z,64.04
2017-10-17T07:19:08.434Z,63.48
2017-10-17T07:21:35.960Z,63.33
2017-10-17T07:24:03.559Z,62.95
2017-10-17T07:26:31.478Z,63.23
2017-10-17T07:28:59.012Z,63.23
2017-10-17T07:31:27.006Z,61.36
2017-10-17T07:33:54.747Z,60.43
2017-10-17T07:36:22.279Z,59.78
2017-10-17T07:38:49.819Z,59.85
2017-10-17T07:41:17.395Z,58.71
2017-10-17T07:43:44.938Z,57.85
2017-10-17T07:46:12.479Z,58.29
2017-10-17T07:48:40.058Z,58.11
2017-10-17T07:51:07.612Z,57.53
2017-10-17T07:53:35.179Z,57.22
2017-10-17T07:56:02.767Z,56.25
2017-10-17T07:58:30.304Z,55.46
2017-10-17T08:00:57.832Z,54.86
2017-10-17T08:03:25.420Z,54.27
2017-10-17T08:05:52.947Z,53.41
2017-10-17T08:08:20.583Z,52.28
2017-10-17T08:10:48.336Z,52.17
2017-10-17T08:13:15.867Z,51.43
2017-10-17T08:15:43.404Z,50.94
2017-10-17T08:18:11.127Z,51.08
2017-10-17T08:20:38.656Z,50.52
2017-10-17T08:23:06.201Z,50.41
2017-10-17T08:25:33.919Z,50.06
2017-10-17T08:28:01.480Z,49.32
2017-10-17T08:30:29.038Z,48.95
2017-10-17T08:32:56.784Z,48.47
2017-10-17T08:35:24.320Z,48.00
2017-10-17T08:37:51.847Z,47.60
2017-10-17T08:40:19.786Z,46.84
2017-10-17T08:42:47.315Z,46.87
2017-10-17T08:45:14.845Z,46.26
2017-10-17T08:47:42.491Z,46.49
2017-10-17T08:50:10.031Z,46.77
2017-10-17T08:52:37.559Z,45.61
2017-10-17T08:55:05.328Z,44.54
2017-10-17T08:57:32.907Z,43.58
2017-10-17T09:00:00.465Z,43.32
2017-10-17T09:02:28.207Z,42.63
2017-10-17T09:04:55.735Z,41.75
2017-10-17T09:07:23.270Z,41.33
2017-10-17T09:09:51.091Z,38.49
2017-10-17T09:12:18.628Z,30.25
2017-10-17T09:14:46.160Z,24.43
2017-10-17T09:17:13.742Z,21.61
2017-10-17T09:19:41.266Z,19.39
2017-10-17T09:22:08.792Z,16.73
2017-10-17T09:24:36.546Z,15.18
2017-10-17T09:27:04.129Z,14.74
2017-10-17T09:29:31.686Z,13.48
2017-10-17T09:31:59.431Z,13.49
2017-10-17T09:34:26.963Z,13.22
2017-10-17T09:36:54.495Z,14.16
2017-10-17T09:39:22.129Z,13.78
2017-10-17T09:41:49.686Z,13.19
2017-10-17T09:44:17.242Z,13.05
2017-10-17T09:46:45.011Z,12.30
2017-10-17T09:49:12.552Z,11.75
2017-10-17T09:51:40.096Z,12.07
2017-10-17T09:54:07.755Z,11.14
2017-10-17T09:56:35.291Z,10.88
2017-10-17T09:59:02.848Z,10.58
2017-10-17T10:01:30.503Z,10.46
2017-10-17T10:03:58.037Z,9.76
2017-10-17T10:06:25.580Z,9.01
2017-10-17T10:08:53.324Z,8.91
2017-10-17T10:11:20.843Z,8.28
2017-10-17T10:13:48.384Z,8.37
2017-10-17T10:16:15.963Z,8.44
2017-10-17T10:18:43.498Z,9.10
2017-10-17T10:21:11.023Z,8.84
2017-10-17T10:23:38.713Z,9.81
2017-10-17T10:26:06.238Z,9.24
2017-10-17T10:28:33.763Z,7.78
2017-10-17T10:31:01.330Z,9.59
2017-10-17T10:33:28.859Z,9.99
2017-10-17T10:35:56.908Z,9.30
2017-10-17T10:38:24.674Z,10.35
2017-10-17T10:40:52.195Z,9.30
2017-10-17T10:43:19.731Z,8.91
2017-10-17T10:45:47.300Z,9.30
2017-10-17T10:48:14.823Z,8.75
2017-10-17T10:50:42.347Z,8.29
2017-10-17T10:53:09.911Z,9.22
2017-10-17T10:55:37.451Z,9.16
2017-10-17T10:58:04.976Z,8.53
2017-10-17T11:00:32.792Z,8.29
2017-10-17T11:03:00.320Z,8.64
2017-10-17T11:05:27.851Z,9.04
2017-10-17T11:08:12.411Z,9.97
2017-10-17T11:10:39.924Z,9.27
2017-10-17T11:13:07.441Z,10.28
2017-10-17T11:15:35.161Z,9.72
2017-10-17T11:18:02.683Z,10.06
2017-10-17T11:20:30.195Z,8.78
2017-10-17T11:22:58.139Z,10.04
2017-10-17T11:25:25.656Z,9.97
2017-10-17T11:27:53.167Z,9.89
2017-10-17T11:30:20.917Z,10.65
2017-10-17T11:32:48.434Z,10.92
2017-10-17T11:35:16.046Z,11.35
2017-10-17T11:37:43.792Z,10.29
2017-10-17T11:40:11.470Z,10.61
2017-10-17T11:45:42.059Z,9.23
2017-10-17T11:48:09.782Z,9.30
2017-10-17T11:50:37.291Z,9.44
2017-10-17T11:53:04.807Z,9.38
2017-10-17T11:55:32.347Z,9.05
2017-10-17T11:57:59.875Z,10.70
2017-10-17T12:00:27.555Z,10.58
2017-10-17T12:02:55.327Z,11.58
2017-10-17T12:05:22.903Z,11.34
2017-10-17T12:07:50.460Z,11.23
2017-10-17T12:10:18.005Z,12.41
2017-10-17T12:12:45.530Z,14.91
2017-10-17T12:15:13.063Z,18.29
2017-10-17T12:17:40.615Z,21.02
2017-10-17T12:20:08.179Z,23.15
2017-10-17T12:22:35.709Z,25.42
2017-10-17T12:25:03.460Z,26.29
2017-10-17T12:27:31.972Z,27.61
2017-10-17T12:29:59.504Z,27.96
2017-10-17T12:32:27.128Z,29.43
2017-10-17T12:34:54.651Z,29.97
2017-10-17T12:37:22.172Z,31.80
2017-10-17T12:39:49.754Z,32.19
2017-10-17T12:42:17.275Z,31.16
2017-10-17T12:44:44.874Z,31.63
2017-10-17T12:47:12.617Z,32.39
2017-10-17T12:49:40.143Z,33.07
2017-10-17T12:52:07.667Z,33.78
2017-10-17T12:54:35.406Z,33.79
2017-10-17T12:57:02.927Z,33.54
2017-10-17T12:59:30.454Z,33.39
2017-10-17T13:01:58.382Z,33.37
2017-10-17T13:04:25.898Z,33.40
2017-10-17T13:06:53.929Z,33.25
2017-10-17T13:09:21.591Z,33.38
2017-10-17T13:11:49.456Z,31.46
2017-10-17T13:14:17.023Z,32.09
2017-10-17T13:16:44.667Z,32.14
2017-10-17T13:19:12.237Z,30.54
2017-10-17T13:21:39.813Z,31.25
2017-10-17T13:24:07.380Z,31.36
2017-10-17T13:26:34.900Z,32.00
2017-10-17T13:29:02.414Z,32.19
2017-10-17T13:31:30.115Z,32.79
2017-10-17T13:33:57.634Z,33.62
2017-10-17T13:36:25.170Z,32.77
2017-10-17T13:38:53.222Z,33.95
2017-10-17T13:41:20.768Z,33.26
2017-10-17T13:43:48.288Z,33.51
2017-10-17T13:46:16.187Z,33.27
2017-10-17T13:48:44.687Z,32.94
2017-10-17T13:51:12.249Z,32.43
2017-10-17T13:53:40.105Z,32.68
2017-10-17T13:56:07.631Z,33.03
2017-10-17T13:58:35.157Z,32.75
2017-10-17T14:01:02.812Z,32.25
2017-10-17T14:03:30.349Z,32.30
2017-10-17T14:05:57.909Z,32.93
2017-10-17T14:08:25.877Z,32.69
2017-10-17T14:10:53.437Z,32.98
2017-10-17T14:13:20.996Z,32.76
2017-10-17T14:15:48.760Z,34.19
2017-10-17T14:18:16.318Z,33.97
2017-10-17T14:20:43.878Z,33.99
2017-10-17T14:23:11.623Z,33.83
2017-10-17T14:25:39.154Z,33.81
2017-10-17T14:28:06.679Z,33.99
2017-10-17T14:30:34.420Z,33.66
2017-10-17T14:33:01.980Z,33.84
2017-10-17T14:35:29.539Z,34.19
2017-10-17T14:37:57.119Z,34.45
2017-10-17T14:40:24.699Z,34.36
2017-10-17T14:42:52.263Z,34.82
2017-10-17T14:45:19.964Z,35.22
2017-10-17T14:47:47.541Z,35.48
2017-10-17T14:50:15.093Z,35.37
2017-10-17T14:52:42.968Z,35.47
2017-10-17T14:55:10.630Z,35.45
2017-10-17T14:57:38.189Z,35.55
2017-10-17T15:00:05.953Z,36.43
2017-10-17T15:02:33.510Z,36.35
2017-10-17T15:05:01.070Z,36.45
2017-10-17T15:07:28.831Z,36.68
2017-10-17T15:09:56.802Z,36.90
2017-10-17T15:12:25.278Z,36.72
2017-10-17T15:14:52.840Z,37.60
2017-10-17T15:17:20.401Z,37.67
2017-10-17T15:19:48.065Z,38.03
2017-10-17T15:22:15.808Z,38.00
2017-10-17T15:24:43.396Z,38.42
2017-10-17T15:27:10.951Z,38.97
2017-10-17T15:29:38.614Z,38.75
2017-10-17T15:32:06.164Z,39.01
2017-10-17T15:34:33.724Z,39.95
2017-10-17T15:37:01.292Z,39.97
2017-10-17T15:39:28.841Z,40.39
2017-10-17T15:41:56.401Z,40.96
2017-10-17T15:44:24.268Z,42.07
2017-10-17T15:46:51.820Z,41.65
2017-10-17T15:49:19.332Z,42.97
2017-10-17T15:51:47.046Z,43.17
2017-10-17T15:54:14.607Z,42.76
2017-10-17T15:56:42.167Z,43.20
2017-10-17T15:59:10.055Z,43.35
2017-10-17T16:01:37.592Z,43.67
2017-10-17T16:04:05.152Z,43.83
2017-10-17T16:06:33.239Z,44.08
2017-10-17T16:09:00.788Z,44.52
2017-10-17T16:11:28.742Z,44.59
2017-10-17T16:13:56.471Z,44.95
2017-10-17T16:16:24.176Z,45.52
2017-10-17T16:18:51.745Z,45.74
2017-10-17T16:21:19.602Z,45.92
2017-10-17T16:23:47.284Z,46.39
2017-10-17T16:26:14.825Z,46.52
2017-10-17T16:28:42.585Z,46.82
2017-10-17T16:31:10.146Z,46.89
2017-10-17T16:33:37.772Z,47.35
2017-10-17T16:36:05.674Z,47.97
2017-10-17T16:38:33.230Z,48.51
2017-10-17T16:41:00.789Z,48.99
2017-10-17T16:43:28.368Z,49.24
2017-10-17T16:45:56.012Z,49.59
2017-10-17T16:48:23.581Z,49.63
2017-10-17T16:50:51.419Z,50.06
2017-10-17T16:53:18.947Z,50.13
2017-10-17T16:55:46.507Z,50.65
2017-10-17T16:58:14.229Z,51.05
2017-10-17T17:00:41.878Z,51.66
2017-10-17T17:03:09.645Z,52.32
2017-10-17T17:05:37.612Z,52.29
2017-10-17T17:08:05.461Z,52.65
2017-10-17T17:10:34.162Z,52.79
2017-10-17T17:13:02.130Z,52.97
2017-10-17T17:15:29.711Z,52.89
2017-10-17T17:17:57.466Z,53.51
2017-10-17T17:20:25.595Z,53.51
2017-10-17T17:22:53.500Z,53.67
2017-10-17T17:25:21.363Z,54.61
2017-10-17T17:27:49.219Z,54.39
2017-10-17T17:30:16.990Z,54.41
2017-10-17T17:32:44.613Z,54.64
2017-10-17T17:35:12.655Z,55.17
2017-10-17T17:37:40.393Z,55.39
2017-10-17T17:40:08.008Z,55.87
2017-10-17T17:42:36.136Z,56.02
2017-10-17T17:45:03.989Z,56.12
2017-10-17T17:47:31.747Z,56.15
2017-10-17T17:49:59.921Z,57.21
2017-10-17T17:52:27.492Z,57.09
2017-10-17T17:54:55.041Z,57.18
2017-10-17T17:57:23.043Z,57.87
2017-10-17T17:59:50.773Z,57.36
2017-10-17T18:02:18.367Z,57.63
2017-10-17T18:04:46.506Z,57.16
2017-10-17T18:07:14.278Z,57.58
2017-10-17T18:09:42.046Z,57.20
2017-10-17T18:12:10.105Z,57.37
2017-10-17T18:14:37.870Z,57.86
2017-10-17T18:17:05.756Z,57.65
2017-10-17T18:19:34.130Z,58.19
2017-10-17T18:22:01.894Z,59.63
2017-10-17T18:24:29.745Z,58.65
2017-10-17T18:26:58.169Z,58.05
2017-10-17T18:29:26.570Z,58.82
2017-10-17T18:31:54.381Z,59.06
2017-10-17T18:34:22.245Z,59.25
2017-10-17T18:36:50.219Z,59.82
2017-10-17T18:39:17.981Z,59.96
2017-10-17T18:41:46.147Z,60.22
2017-10-17T18:44:13.915Z,60.34
2017-10-17T18:46:41.692Z,60.23
2017-10-17T18:49:09.846Z,60.59
2017-10-17T18:51:37.545Z,60.76
2017-10-17T18:54:05.275Z,61.15
2017-10-17T18:56:33.241Z,62.12
2017-10-17T18:59:00.905Z,62.26
2017-10-17T19:01:28.763Z,62.41
2017-10-17T19:03:56.658Z,62.68
2017-10-17T19:06:24.803Z,62.42
2017-10-17T19:08:53.433Z,62.76
2017-10-17T19:11:22.686Z,62.59
2017-10-17T19:13:50.461Z,62.15
2017-10-17T19:16:18.234Z,62.59
2017-10-17T19:18:46.309Z,62.89
2017-10-17T19:21:14.254Z,63.13
2017-10-17T19:23:42.325Z,63.07
2017-10-17T19:26:10.431Z,63.70
2017-10-17T19:28:38.280Z,64.02
2017-10-17T19:31:06.231Z,63.82
2017-10-17T19:33:34.527Z,63.83
2017-10-17T19:36:03.092Z,64.14
2017-10-17T19:38:31.469Z,64.71
2017-10-17T19:40:59.560Z,64.60
2017-10-17T19:43:27.408Z,64.78
2017-10-17T19:45:55.274Z,65.16
2017-10-17T19:48:23.798Z,65.18
2017-10-17T19:50:51.656Z,65.46
2017-10-17T19:53:20.510Z,65.41
2017-10-17T19:55:48.491Z,65.82
2017-10-17T19:58:16.857Z,66.12
2017-10-17T20:00:44.743Z,66.22
2017-10-17T20:03:13.171Z,65.86
2017-10-17T20:05:41.092Z,65.95
2017-10-17T20:08:09.450Z,65.92
2017-10-17T20:10:37.625Z,65.36
2017-10-17T20:13:05.494Z,65.41
2017-10-17T20:15:33.254Z,65.29
2017-10-17T20:18:01.239Z,65.34
2017-10-17T20:20:29.921Z,66.03
2017-10-17T20:22:57.680Z,66.69
2017-10-17T20:25:25.766Z,66.76
2017-10-17T20:27:53.493Z,66.74
2017-10-17T20:32:48.732Z,66.86
2017-10-17T20:35:16.491Z,67.00
2017-10-17T20:37:44.257Z,67.42
2017-10-17T20:40:12.430Z,66.99
2017-10-17T20:42:40.150Z,66.53
2017-10-17T20:45:08.059Z,67.19
2017-10-17T20:47:36.237Z,67.38
2017-10-17T20:50:04.714Z,67.86
2017-10-17T20:52:32.686Z,67.90
2017-10-17T20:55:00.761Z,67.76
2017-10-17T20:57:28.344Z,67.53
2017-10-17T20:59:56.088Z,67.91
2017-10-17T21:02:24.250Z,67.58
2017-10-17T21:04:51.851Z,67.66
2017-10-17T21:07:19.581Z,69.00
2017-10-17T21:09:47.486Z,68.51
2017-10-17T21:12:15.055Z,67.97
2017-10-17T21:14:42.627Z,67.95
2017-10-17T21:17:10.530Z,67.65
2017-10-17T21:19:38.108Z,67.97
2017-10-17T21:22:05.703Z,68.03
2017-10-17T21:24:33.494Z,67.62
2017-10-17T21:27:01.072Z,67.70
2017-10-17T21:29:28.639Z,67.25
2017-10-17T21:31:56.395Z,67.82
2017-10-17T21:34:23.923Z,67.40
2017-10-17T21:36:51.454Z,67.80
2017-10-17T21:39:19.174Z,68.37
2017-10-17T21:41:46.748Z,68.77
2017-10-17T21:44:14.303Z,68.90
2017-10-17T21:46:42.157Z,69.06
2017-10-17T21:49:09.716Z,68.73
2017-10-17T21:51:37.275Z,68.62
2017-10-17T21:54:05.020Z,68.81
2017-10-17T21:56:32.600Z,68.90
2017-10-17T21:59:00.160Z,69.06
2017-10-17T22:01:28.015Z,69.58
2017-10-17T22:03:55.556Z,69.19
2017-10-17T22:06:23.098Z,68.63
2017-10-17T22:08:50.917Z,68.52
2017-10-17T22:11:18.455Z,68.57
2017-10-17T22:13:46.004Z,68.78
2017-10-17T22:16:13.600Z,69.91
2017-10-17T22:18:41.144Z,69.10
2017-10-17T22:21:08.675Z,68.53
2017-10-17T22:23:36.248Z,68.33
2017-10-17T22:26:03.821Z,68.18
2017-10-17T22:28:31.381Z,67.94
2017-10-17T22:30:58.960Z,68.56
2017-10-17T22:33:26.494Z,68.84
2017-10-17T22:35:54.031Z,68.85
2017-10-17T22:38:21.908Z,69.54
2017-10-17T22:40:49.431Z,69.18
2017-10-17T22:43:16.955Z,69.35
2017-10-17T22:45:44.805Z,69.18
2017-10-17T22:48:12.365Z,69.74
2017-10-17T22:50:39.925Z,70.52
2017-10-17T22:53:07.517Z,71.08
2017-10-17T22:55:35.043Z,70.66
2017-10-17T22:58:02.567Z,71.89
2017-10-17T23:00:30.467Z,72.22
2017-10-17T23:02:57.994Z,71.69
2017-10-17T23:05:25.515Z,71.13
2017-10-17T23:07:53.145Z,70.90
2017-10-17T23:10:20.705Z,70.96
2017-10-17T23:12:48.268Z,70.74
2017-10-17T23:15:15.856Z,71.21
2017-10-17T23:17:55.158Z,70.27
2017-10-17T23:20:38.672Z,69.86
2017-10-17T23:23:06.251Z,69.65
2017-10-17T23:25:33.812Z,68.83
2017-10-17T23:28:01.395Z,68.87
2017-10-17T23:30:28.926Z,69.19
2017-10-17T23:32:56.487Z,69.24
2017-10-17T23:35:24.253Z,69.77
2017-10-17T23:37:51.809Z,69.60
2017-10-17T23:40:19.373Z,69.08
2017-10-17T23:42:46.946Z,70.22
2017-10-17T23:45:14.486Z,70.42
2017-10-17T23:47:42.003Z,70.32
2017-10-17T23:50:09.809Z,70.44
2017-10-17T23:52:37.370Z,70.87
2017-10-17T23:55:04.931Z,70.23
2017-10-17T23:57:32.579Z,70.04
